sensor_id;sensor_type;location;lat;lon;timestamp;temperature;humidity
15455;DHT22;21057;51.024;7.540;2022-09-03T00:00:04;17.50;66.00
15455;DHT22;21057;51.024;7.540;2022-09-03T00:02:37;17.50;66.00
15455;DHT22;21057;51.024;7.540;2022-09-03T00:05:08;17.60;65.60
15455;DHT22;21057;51.024;7.540;2022-09-03T00:07:41;17.70;65.70
15455;DHT22;21057;51.024;7.540;2022-09-03T00:10:17;17.60;65.00
15455;DHT22;21057;51.024;7.540;2022-09-03T00:12:46;17.70;65.30
15455;DHT22;21057;51.024;7.540;2022-09-03T00:15:17;17.60;65.00
15455;DHT22;21057;51.024;7.540;2022-09-03T00:17:48;17.50;66.80
15455;DHT22;21057;51.024;7.540;2022-09-03T00:20:20;17.70;65.50
15455;DHT22;21057;51.024;7.540;2022-09-03T00:22:50;17.80;64.80
15455;DHT22;21057;51.024;7.540;2022-09-03T00:25:21;17.70;65.00
15455;DHT22;21057;51.024;7.540;2022-09-03T00:27:52;17.60;66.10
15455;DHT22;21057;51.024;7.540;2022-09-03T00:30:22;17.60;66.00
15455;DHT22;21057;51.024;7.540;2022-09-03T00:32:56;17.50;66.10
15455;DHT22;21057;51.024;7.540;2022-09-03T00:35:34;17.50;65.90
15455;DHT22;21057;51.024;7.540;2022-09-03T00:38:04;17.60;66.50
15455;DHT22;21057;51.024;7.540;2022-09-03T00:40:51;17.50;65.50
15455;DHT22;21057;51.024;7.540;2022-09-03T00:43:27;17.60;65.90
15455;DHT22;21057;51.024;7.540;2022-09-03T00:46:05;17.60;66.00
15455;DHT22;21057;51.024;7.540;2022-09-03T00:48:45;17.40;65.70
15455;DHT22;21057;51.024;7.540;2022-09-03T00:51:21;17.40;65.90
15455;DHT22;21057;51.024;7.540;2022-09-03T00:53:59;17.30;66.70
15455;DHT22;21057;51.024;7.540;2022-09-03T00:56:37;17.40;66.60
15455;DHT22;21057;51.024;7.540;2022-09-03T00:59:15;17.40;67.20
15455;DHT22;21057;51.024;7.540;2022-09-03T01:01:55;17.30;67.20
15455;DHT22;21057;51.024;7.540;2022-09-03T01:04:38;17.20;67.60
15455;DHT22;21057;51.024;7.540;2022-09-03T01:07:16;17.10;68.40
15455;DHT22;21057;51.024;7.540;2022-09-03T01:09:52;17.10;67.30
15455;DHT22;21057;51.024;7.540;2022-09-03T01:12:34;17.10;68.00
15455;DHT22;21057;51.024;7.540;2022-09-03T01:15:09;17.10;68.20
15455;DHT22;21057;51.024;7.540;2022-09-03T01:17:48;17.20;67.70
15455;DHT22;21057;51.024;7.540;2022-09-03T01:20:30;17.20;67.40
15455;DHT22;21057;51.024;7.540;2022-09-03T01:26:32;17.30;66.90
15455;DHT22;21057;51.024;7.540;2022-09-03T01:29:11;17.30;67.50
15455;DHT22;21057;51.024;7.540;2022-09-03T01:31:52;17.40;66.60
15455;DHT22;21057;51.024;7.540;2022-09-03T01:34:32;17.30;67.50
15455;DHT22;21057;51.024;7.540;2022-09-03T01:37:12;17.30;67.10
15455;DHT22;21057;51.024;7.540;2022-09-03T01:39:45;17.30;67.20
15455;DHT22;21057;51.024;7.540;2022-09-03T01:42:23;17.20;67.90
15455;DHT22;21057;51.024;7.540;2022-09-03T01:45:18;17.40;66.20
15455;DHT22;21057;51.024;7.540;2022-09-03T01:48:15;17.40;66.40
15455;DHT22;21057;51.024;7.540;2022-09-03T01:50:48;17.60;66.00
15455;DHT22;21057;51.024;7.540;2022-09-03T01:53:26;17.40;67.00
15455;DHT22;21057;51.024;7.540;2022-09-03T01:56:10;17.50;66.70
15455;DHT22;21057;51.024;7.540;2022-09-03T01:58:44;17.60;66.40
15455;DHT22;21057;51.024;7.540;2022-09-03T02:01:17;17.60;65.50
15455;DHT22;21057;51.024;7.540;2022-09-03T02:03:50;17.60;66.30
15455;DHT22;21057;51.024;7.540;2022-09-03T02:06:25;17.70;65.80
15455;DHT22;21057;51.024;7.540;2022-09-03T02:08:52;17.70;66.20
15455;DHT22;21057;51.024;7.540;2022-09-03T02:11:21;17.70;65.60
15455;DHT22;21057;51.024;7.540;2022-09-03T02:13:50;17.70;66.80
15455;DHT22;21057;51.024;7.540;2022-09-03T02:16:22;17.60;66.20
15455;DHT22;21057;51.024;7.540;2022-09-03T02:18:53;17.60;66.60
15455;DHT22;21057;51.024;7.540;2022-09-03T02:21:24;17.50;66.90
15455;DHT22;21057;51.024;7.540;2022-09-03T02:23:53;17.30;66.80
15455;DHT22;21057;51.024;7.540;2022-09-03T02:26:22;17.30;67.10
15455;DHT22;21057;51.024;7.540;2022-09-03T02:28:49;17.40;67.00
15455;DHT22;21057;51.024;7.540;2022-09-03T02:31:23;17.50;66.80
15455;DHT22;21057;51.024;7.540;2022-09-03T02:33:50;17.50;67.10
15455;DHT22;21057;51.024;7.540;2022-09-03T02:36:20;17.50;66.90
15455;DHT22;21057;51.024;7.540;2022-09-03T02:38:50;17.50;66.90
15455;DHT22;21057;51.024;7.540;2022-09-03T02:41:19;17.60;66.70
15455;DHT22;21057;51.024;7.540;2022-09-03T02:43:49;17.50;67.40
15455;DHT22;21057;51.024;7.540;2022-09-03T02:46:21;17.40;68.20
15455;DHT22;21057;51.024;7.540;2022-09-03T02:48:54;17.30;67.60
15455;DHT22;21057;51.024;7.540;2022-09-03T02:51:21;17.40;67.70
15455;DHT22;21057;51.024;7.540;2022-09-03T02:53:48;17.30;68.40
15455;DHT22;21057;51.024;7.540;2022-09-03T02:56:15;17.50;67.40
15455;DHT22;21057;51.024;7.540;2022-09-03T02:58:42;17.60;66.70
15455;DHT22;21057;51.024;7.540;2022-09-03T03:01:09;17.60;67.10
15455;DHT22;21057;51.024;7.540;2022-09-03T03:03:36;17.60;66.80
15455;DHT22;21057;51.024;7.540;2022-09-03T03:06:06;17.50;67.10
15455;DHT22;21057;51.024;7.540;2022-09-03T03:08:33;17.50;67.00
15455;DHT22;21057;51.024;7.540;2022-09-03T03:11:00;17.60;66.50
15455;DHT22;21057;51.024;7.540;2022-09-03T03:13:29;17.60;67.10
15455;DHT22;21057;51.024;7.540;2022-09-03T03:15:57;17.60;67.40
15455;DHT22;21057;51.024;7.540;2022-09-03T03:18:24;17.50;67.20
15455;DHT22;21057;51.024;7.540;2022-09-03T03:20:51;17.50;67.80
15455;DHT22;21057;51.024;7.540;2022-09-03T03:23:20;17.50;67.40
15455;DHT22;21057;51.024;7.540;2022-09-03T03:25:47;17.60;66.70
15455;DHT22;21057;51.024;7.540;2022-09-03T03:28:14;17.60;67.40
15455;DHT22;21057;51.024;7.540;2022-09-03T03:30:43;17.60;67.20
15455;DHT22;21057;51.024;7.540;2022-09-03T03:33:13;17.70;67.10
15455;DHT22;21057;51.024;7.540;2022-09-03T03:35:39;17.70;66.90
15455;DHT22;21057;51.024;7.540;2022-09-03T03:38:07;17.60;67.10
15455;DHT22;21057;51.024;7.540;2022-09-03T03:40:38;17.50;67.30
15455;DHT22;21057;51.024;7.540;2022-09-03T03:43:05;17.40;68.50
15455;DHT22;21057;51.024;7.540;2022-09-03T03:45:32;17.40;67.70
15455;DHT22;21057;51.024;7.540;2022-09-03T03:47:59;17.50;67.90
15455;DHT22;21057;51.024;7.540;2022-09-03T03:50:26;17.50;67.90
15455;DHT22;21057;51.024;7.540;2022-09-03T03:52:53;17.50;67.70
15455;DHT22;21057;51.024;7.540;2022-09-03T03:55:21;17.50;67.50
15455;DHT22;21057;51.024;7.540;2022-09-03T03:57:50;17.40;68.70
15455;DHT22;21057;51.024;7.540;2022-09-03T04:00:17;17.40;68.40
15455;DHT22;21057;51.024;7.540;2022-09-03T04:02:53;17.30;68.60
15455;DHT22;21057;51.024;7.540;2022-09-03T04:05:20;17.30;69.10
15455;DHT22;21057;51.024;7.540;2022-09-03T04:07:46;17.30;69.00
15455;DHT22;21057;51.024;7.540;2022-09-03T04:10:25;17.40;68.40
15455;DHT22;21057;51.024;7.540;2022-09-03T04:12:54;17.40;68.50
15455;DHT22;21057;51.024;7.540;2022-09-03T04:15:25;17.30;69.50
15455;DHT22;21057;51.024;7.540;2022-09-03T04:17:53;17.30;69.10
15455;DHT22;21057;51.024;7.540;2022-09-03T04:20:20;17.20;69.70
15455;DHT22;21057;51.024;7.540;2022-09-03T04:22:47;17.30;69.00
15455;DHT22;21057;51.024;7.540;2022-09-03T04:25:14;17.20;69.50
15455;DHT22;21057;51.024;7.540;2022-09-03T04:27:41;17.20;69.80
15455;DHT22;21057;51.024;7.540;2022-09-03T04:30:14;17.20;70.10
15455;DHT22;21057;51.024;7.540;2022-09-03T04:32:41;17.20;69.50
15455;DHT22;21057;51.024;7.540;2022-09-03T04:35:21;17.10;70.10
15455;DHT22;21057;51.024;7.540;2022-09-03T04:37:51;17.20;69.90
15455;DHT22;21057;51.024;7.540;2022-09-03T04:40:19;17.20;69.30
15455;DHT22;21057;51.024;7.540;2022-09-03T04:42:55;17.10;70.20
15455;DHT22;21057;51.024;7.540;2022-09-03T04:45:24;17.20;69.60
15455;DHT22;21057;51.024;7.540;2022-09-03T04:47:58;17.30;69.40
15455;DHT22;21057;51.024;7.540;2022-09-03T04:50:26;17.20;70.20
15455;DHT22;21057;51.024;7.540;2022-09-03T04:52:53;17.10;70.80
15455;DHT22;21057;51.024;7.540;2022-09-03T04:55:20;16.90;71.10
15455;DHT22;21057;51.024;7.540;2022-09-03T04:57:47;16.90;71.30
15455;DHT22;21057;51.024;7.540;2022-09-03T05:00:16;17.10;70.90
15455;DHT22;21057;51.024;7.540;2022-09-03T05:02:45;17.10;70.90
15455;DHT22;21057;51.024;7.540;2022-09-03T05:05:14;17.00;71.10
15455;DHT22;21057;51.024;7.540;2022-09-03T05:07:41;17.10;71.30
15455;DHT22;21057;51.024;7.540;2022-09-03T05:10:09;17.20;70.30
15455;DHT22;21057;51.024;7.540;2022-09-03T05:12:37;17.10;70.90
15455;DHT22;21057;51.024;7.540;2022-09-03T05:15:05;17.10;71.50
15455;DHT22;21057;51.024;7.540;2022-09-03T05:17:33;17.20;70.30
15455;DHT22;21057;51.024;7.540;2022-09-03T05:20:01;17.10;71.30
15455;DHT22;21057;51.024;7.540;2022-09-03T05:22:28;17.10;71.50
15455;DHT22;21057;51.024;7.540;2022-09-03T05:24:55;17.10;72.10
15455;DHT22;21057;51.024;7.540;2022-09-03T05:27:22;17.20;72.20
15455;DHT22;21057;51.024;7.540;2022-09-03T05:29:49;17.20;71.30
15455;DHT22;21057;51.024;7.540;2022-09-03T05:32:16;17.40;71.50
15455;DHT22;21057;51.024;7.540;2022-09-03T05:34:46;17.40;71.20
15455;DHT22;21057;51.024;7.540;2022-09-03T05:37:14;17.50;70.70
15455;DHT22;21057;51.024;7.540;2022-09-03T05:39:41;17.50;71.50
15455;DHT22;21057;51.024;7.540;2022-09-03T05:42:08;17.60;71.50
15455;DHT22;21057;51.024;7.540;2022-09-03T05:44:38;17.60;71.70
15455;DHT22;21057;51.024;7.540;2022-09-03T05:47:05;17.70;71.10
15455;DHT22;21057;51.024;7.540;2022-09-03T05:49:32;17.70;70.70
15455;DHT22;21057;51.024;7.540;2022-09-03T05:52:02;17.70;71.20
15455;DHT22;21057;51.024;7.540;2022-09-03T05:54:30;17.70;71.30
15455;DHT22;21057;51.024;7.540;2022-09-03T05:56:57;17.90;70.90
15455;DHT22;21057;51.024;7.540;2022-09-03T05:59:26;17.90;71.10
15455;DHT22;21057;51.024;7.540;2022-09-03T06:01:53;18.00;70.60
15455;DHT22;21057;51.024;7.540;2022-09-03T06:04:20;17.90;70.40
15455;DHT22;21057;51.024;7.540;2022-09-03T06:06:48;18.10;69.40
15455;DHT22;21057;51.024;7.540;2022-09-03T06:09:18;18.10;68.90
15455;DHT22;21057;51.024;7.540;2022-09-03T06:12:02;17.90;70.70
15455;DHT22;21057;51.024;7.540;2022-09-03T06:14:29;18.00;69.40
15455;DHT22;21057;51.024;7.540;2022-09-03T06:16:59;17.90;70.90
15455;DHT22;21057;51.024;7.540;2022-09-03T06:19:26;18.00;70.50
15455;DHT22;21057;51.024;7.540;2022-09-03T06:21:53;18.00;69.50
15455;DHT22;21057;51.024;7.540;2022-09-03T06:24:28;18.20;69.40
15455;DHT22;21057;51.024;7.540;2022-09-03T06:26:55;18.20;69.30
15455;DHT22;21057;51.024;7.540;2022-09-03T06:29:23;18.20;69.70
15455;DHT22;21057;51.024;7.540;2022-09-03T06:31:50;18.30;69.60
15455;DHT22;21057;51.024;7.540;2022-09-03T06:34:17;18.30;70.80
15455;DHT22;21057;51.024;7.540;2022-09-03T06:36:44;18.20;69.00
15455;DHT22;21057;51.024;7.540;2022-09-03T06:39:13;18.30;70.00
15455;DHT22;21057;51.024;7.540;2022-09-03T06:41:40;18.50;69.70
15455;DHT22;21057;51.024;7.540;2022-09-03T06:44:08;18.70;68.70
15455;DHT22;21057;51.024;7.540;2022-09-03T06:46:47;18.60;69.30
15455;DHT22;21057;51.024;7.540;2022-09-03T06:49:18;18.70;69.30
15455;DHT22;21057;51.024;7.540;2022-09-03T06:51:45;18.70;68.70
15455;DHT22;21057;51.024;7.540;2022-09-03T06:54:12;18.70;68.90
15455;DHT22;21057;51.024;7.540;2022-09-03T06:56:42;19.00;68.20
15455;DHT22;21057;51.024;7.540;2022-09-03T06:59:14;19.20;67.70
15455;DHT22;21057;51.024;7.540;2022-09-03T07:01:44;19.30;67.00
15455;DHT22;21057;51.024;7.540;2022-09-03T07:04:14;19.20;67.80
15455;DHT22;21057;51.024;7.540;2022-09-03T07:06:41;19.30;66.60
15455;DHT22;21057;51.024;7.540;2022-09-03T07:09:11;19.30;67.00
15455;DHT22;21057;51.024;7.540;2022-09-03T07:11:39;19.40;67.50
15455;DHT22;21057;51.024;7.540;2022-09-03T07:14:20;19.50;66.20
15455;DHT22;21057;51.024;7.540;2022-09-03T07:16:53;19.60;66.60
15455;DHT22;21057;51.024;7.540;2022-09-03T07:19:24;19.60;67.00
15455;DHT22;21057;51.024;7.540;2022-09-03T07:21:51;19.70;66.50
15455;DHT22;21057;51.024;7.540;2022-09-03T07:24:18;19.80;66.10
15455;DHT22;21057;51.024;7.540;2022-09-03T07:26:52;19.70;66.90
15455;DHT22;21057;51.024;7.540;2022-09-03T07:29:27;20.00;66.80
15455;DHT22;21057;51.024;7.540;2022-09-03T07:31:54;20.10;66.30
15455;DHT22;21057;51.024;7.540;2022-09-03T07:34:21;20.00;66.30
15455;DHT22;21057;51.024;7.540;2022-09-03T07:43:38;20.50;65.50
15455;DHT22;21057;51.024;7.540;2022-09-03T07:46:06;20.40;65.40
15455;DHT22;21057;51.024;7.540;2022-09-03T07:48:38;20.60;65.60
15455;DHT22;21057;51.024;7.540;2022-09-03T07:51:05;20.80;64.30
15455;DHT22;21057;51.024;7.540;2022-09-03T07:53:33;20.70;63.40
15455;DHT22;21057;51.024;7.540;2022-09-03T07:56:09;20.80;64.70
15455;DHT22;21057;51.024;7.540;2022-09-03T07:58:38;20.90;62.70
15455;DHT22;21057;51.024;7.540;2022-09-03T08:01:07;21.10;64.00
15455;DHT22;21057;51.024;7.540;2022-09-03T08:03:37;20.90;63.10
15455;DHT22;21057;51.024;7.540;2022-09-03T08:06:06;21.10;64.80
15455;DHT22;21057;51.024;7.540;2022-09-03T08:08:36;21.40;61.80
15455;DHT22;21057;51.024;7.540;2022-09-03T08:11:05;21.50;61.30
15455;DHT22;21057;51.024;7.540;2022-09-03T08:13:37;21.60;61.90
15455;DHT22;21057;51.024;7.540;2022-09-03T08:16:05;21.70;62.30
15455;DHT22;21057;51.024;7.540;2022-09-03T08:18:35;22.00;61.80
15455;DHT22;21057;51.024;7.540;2022-09-03T08:21:05;22.20;60.70
15455;DHT22;21057;51.024;7.540;2022-09-03T08:23:35;22.20;61.10
15455;DHT22;21057;51.024;7.540;2022-09-03T08:26:02;22.30;61.40
15455;DHT22;21057;51.024;7.540;2022-09-03T08:28:29;22.50;60.80
15455;DHT22;21057;51.024;7.540;2022-09-03T08:31:03;22.60;59.60
15455;DHT22;21057;51.024;7.540;2022-09-03T08:33:33;22.50;59.80
15455;DHT22;21057;51.024;7.540;2022-09-03T08:36:04;22.50;61.00
15455;DHT22;21057;51.024;7.540;2022-09-03T08:38:32;22.50;61.30
15455;DHT22;21057;51.024;7.540;2022-09-03T08:41:12;22.40;61.00
15455;DHT22;21057;51.024;7.540;2022-09-03T08:44:03;22.40;62.10
15455;DHT22;21057;51.024;7.540;2022-09-03T08:46:41;22.50;62.10
15455;DHT22;21057;51.024;7.540;2022-09-03T08:49:11;22.60;61.70
15455;DHT22;21057;51.024;7.540;2022-09-03T08:51:41;22.70;60.80
15455;DHT22;21057;51.024;7.540;2022-09-03T08:54:09;22.90;60.30
15455;DHT22;21057;51.024;7.540;2022-09-03T08:56:39;23.00;60.70
15455;DHT22;21057;51.024;7.540;2022-09-03T08:59:07;23.00;59.30
15455;DHT22;21057;51.024;7.540;2022-09-03T09:01:42;23.20;58.60
15455;DHT22;21057;51.024;7.540;2022-09-03T09:04:22;23.30;59.70
15455;DHT22;21057;51.024;7.540;2022-09-03T09:06:54;23.60;59.30
15455;DHT22;21057;51.024;7.540;2022-09-03T09:09:29;23.60;59.10
15455;DHT22;21057;51.024;7.540;2022-09-03T09:12:03;23.80;59.60
15455;DHT22;21057;51.024;7.540;2022-09-03T09:14:39;23.90;58.40
15455;DHT22;21057;51.024;7.540;2022-09-03T09:17:22;24.00;58.00
15455;DHT22;21057;51.024;7.540;2022-09-03T09:20:02;24.10;57.90
15455;DHT22;21057;51.024;7.540;2022-09-03T09:22:34;24.20;57.40
15455;DHT22;21057;51.024;7.540;2022-09-03T09:25:07;24.20;56.60
15455;DHT22;21057;51.024;7.540;2022-09-03T09:27:40;24.50;57.30
15455;DHT22;21057;51.024;7.540;2022-09-03T09:30:12;24.50;58.10
15455;DHT22;21057;51.024;7.540;2022-09-03T09:32:51;24.60;56.30
15455;DHT22;21057;51.024;7.540;2022-09-03T09:35:22;24.70;56.20
15455;DHT22;21057;51.024;7.540;2022-09-03T09:37:51;24.50;56.40
15455;DHT22;21057;51.024;7.540;2022-09-03T09:40:23;24.40;57.00
15455;DHT22;21057;51.024;7.540;2022-09-03T09:42:51;24.10;56.80
15455;DHT22;21057;51.024;7.540;2022-09-03T09:45:28;24.10;56.90
15455;DHT22;21057;51.024;7.540;2022-09-03T09:48:01;24.10;57.60
15455;DHT22;21057;51.024;7.540;2022-09-03T09:50:28;23.80;57.20
15455;DHT22;21057;51.024;7.540;2022-09-03T09:53:03;23.70;58.00
15455;DHT22;21057;51.024;7.540;2022-09-03T09:55:48;23.90;59.00
15455;DHT22;21057;51.024;7.540;2022-09-03T09:58:18;24.20;58.50
15455;DHT22;21057;51.024;7.540;2022-09-03T10:00:55;24.10;58.50
15455;DHT22;21057;51.024;7.540;2022-09-03T10:03:24;23.80;58.80
15455;DHT22;21057;51.024;7.540;2022-09-03T10:06:02;23.70;59.10
15455;DHT22;21057;51.024;7.540;2022-09-03T10:08:52;23.70;60.40
15455;DHT22;21057;51.024;7.540;2022-09-03T10:11:21;23.80;59.60
15455;DHT22;21057;51.024;7.540;2022-09-03T10:13:51;23.90;61.00
15455;DHT22;21057;51.024;7.540;2022-09-03T10:16:26;23.90;58.80
15455;DHT22;21057;51.024;7.540;2022-09-03T10:19:02;24.10;58.40
15455;DHT22;21057;51.024;7.540;2022-09-03T10:21:35;24.20;57.60
15455;DHT22;21057;51.024;7.540;2022-09-03T10:24:18;24.10;59.60
15455;DHT22;21057;51.024;7.540;2022-09-03T10:26:47;24.20;59.50
15455;DHT22;21057;51.024;7.540;2022-09-03T10:29:18;24.20;60.10
15455;DHT22;21057;51.024;7.540;2022-09-03T10:32:02;24.30;61.10
15455;DHT22;21057;51.024;7.540;2022-09-03T10:34:43;24.30;60.20
15455;DHT22;21057;51.024;7.540;2022-09-03T10:37:20;24.40;60.80
15455;DHT22;21057;51.024;7.540;2022-09-03T10:40:10;24.40;61.30
15455;DHT22;21057;51.024;7.540;2022-09-03T10:42:43;24.00;61.40
15455;DHT22;21057;51.024;7.540;2022-09-03T10:45:17;23.90;61.80
15455;DHT22;21057;51.024;7.540;2022-09-03T10:50:47;24.10;62.80
15455;DHT22;21057;51.024;7.540;2022-09-03T10:53:32;24.10;62.10
15455;DHT22;21057;51.024;7.540;2022-09-03T10:56:08;24.10;63.50
15455;DHT22;21057;51.024;7.540;2022-09-03T10:58:51;23.90;63.70
15455;DHT22;21057;51.024;7.540;2022-09-03T11:01:26;23.90;63.20
15455;DHT22;21057;51.024;7.540;2022-09-03T11:04:11;23.70;63.30
15455;DHT22;21057;51.024;7.540;2022-09-03T11:06:50;23.50;66.40
15455;DHT22;21057;51.024;7.540;2022-09-03T11:09:21;23.50;67.70
15455;DHT22;21057;51.024;7.540;2022-09-03T11:11:54;23.60;65.60
15455;DHT22;21057;51.024;7.540;2022-09-03T11:14:29;23.80;64.00
15455;DHT22;21057;51.024;7.540;2022-09-03T11:17:03;23.90;65.40
15455;DHT22;21057;51.024;7.540;2022-09-03T11:19:34;24.10;63.10
15455;DHT22;21057;51.024;7.540;2022-09-03T11:22:05;24.20;62.90
15455;DHT22;21057;51.024;7.540;2022-09-03T11:24:34;24.30;61.10
15455;DHT22;21057;51.024;7.540;2022-09-03T11:27:16;24.40;60.10
15455;DHT22;21057;51.024;7.540;2022-09-03T11:29:50;24.60;60.60
15455;DHT22;21057;51.024;7.540;2022-09-03T11:32:23;24.60;60.30
15455;DHT22;21057;51.024;7.540;2022-09-03T11:34:53;24.60;61.20
15455;DHT22;21057;51.024;7.540;2022-09-03T11:37:24;24.50;60.30
15455;DHT22;21057;51.024;7.540;2022-09-03T11:40:02;24.60;59.90
15455;DHT22;21057;51.024;7.540;2022-09-03T11:42:41;24.80;62.00
15455;DHT22;21057;51.024;7.540;2022-09-03T11:45:23;25.00;61.10
15455;DHT22;21057;51.024;7.540;2022-09-03T11:47:59;25.50;59.80
15455;DHT22;21057;51.024;7.540;2022-09-03T11:50:28;26.10;59.40
15455;DHT22;21057;51.024;7.540;2022-09-03T11:53:08;26.80;58.20
15455;DHT22;21057;51.024;7.540;2022-09-03T11:55:51;27.00;56.80
15455;DHT22;21057;51.024;7.540;2022-09-03T11:58:24;27.20;56.90
15455;DHT22;21057;51.024;7.540;2022-09-03T12:00:52;27.30;55.40
15455;DHT22;21057;51.024;7.540;2022-09-03T12:03:25;27.10;57.00
15455;DHT22;21057;51.024;7.540;2022-09-03T12:06:11;27.20;55.20
15455;DHT22;21057;51.024;7.540;2022-09-03T12:08:57;28.00;56.00
15455;DHT22;21057;51.024;7.540;2022-09-03T12:11:39;29.10;53.90
15455;DHT22;21057;51.024;7.540;2022-09-03T12:14:13;29.70;53.00
15455;DHT22;21057;51.024;7.540;2022-09-03T12:16:55;29.50;51.80
15455;DHT22;21057;51.024;7.540;2022-09-03T12:19:29;29.90;51.80
15455;DHT22;21057;51.024;7.540;2022-09-03T12:22:00;30.70;52.10
15455;DHT22;21057;51.024;7.540;2022-09-03T12:24:33;31.30;51.70
15455;DHT22;21057;51.024;7.540;2022-09-03T12:27:02;31.40;51.80
15455;DHT22;21057;51.024;7.540;2022-09-03T12:29:30;31.30;51.30
15455;DHT22;21057;51.024;7.540;2022-09-03T12:32:06;30.90;51.40
15455;DHT22;21057;51.024;7.540;2022-09-03T12:34:34;30.30;53.40
15455;DHT22;21057;51.024;7.540;2022-09-03T12:37:01;29.60;53.80
15455;DHT22;21057;51.024;7.540;2022-09-03T12:39:32;30.30;53.80
15455;DHT22;21057;51.024;7.540;2022-09-03T12:42:00;31.40;51.60
15455;DHT22;21057;51.024;7.540;2022-09-03T12:44:30;32.00;50.60
15455;DHT22;21057;51.024;7.540;2022-09-03T12:47:02;32.60;49.40
15455;DHT22;21057;51.024;7.540;2022-09-03T12:49:37;32.70;48.60
15455;DHT22;21057;51.024;7.540;2022-09-03T12:52:09;32.80;49.20
15455;DHT22;21057;51.024;7.540;2022-09-03T12:54:43;32.90;48.80
15455;DHT22;21057;51.024;7.540;2022-09-03T12:57:16;33.10;48.20
15455;DHT22;21057;51.024;7.540;2022-09-03T12:59:48;32.70;47.90
15455;DHT22;21057;51.024;7.540;2022-09-03T13:02:21;32.30;48.60
15455;DHT22;21057;51.024;7.540;2022-09-03T13:04:50;32.40;49.30
15455;DHT22;21057;51.024;7.540;2022-09-03T13:07:23;31.70;50.00
15455;DHT22;21057;51.024;7.540;2022-09-03T13:09:59;32.00;49.60
15455;DHT22;21057;51.024;7.540;2022-09-03T13:12:31;32.50;50.70
15455;DHT22;21057;51.024;7.540;2022-09-03T13:15:06;32.90;48.70
15455;DHT22;21057;51.024;7.540;2022-09-03T13:17:54;33.10;48.40
15455;DHT22;21057;51.024;7.540;2022-09-03T13:20:31;33.00;48.70
15455;DHT22;21057;51.024;7.540;2022-09-03T13:23:12;33.40;48.00
15455;DHT22;21057;51.024;7.540;2022-09-03T13:25:52;33.20;48.50
15455;DHT22;21057;51.024;7.540;2022-09-03T13:28:32;33.10;50.00
15455;DHT22;21057;51.024;7.540;2022-09-03T13:31:09;32.70;48.60
15455;DHT22;21057;51.024;7.540;2022-09-03T13:33:49;32.60;48.80
15455;DHT22;21057;51.024;7.540;2022-09-03T13:36:23;31.80;51.20
15455;DHT22;21057;51.024;7.540;2022-09-03T13:38:55;32.00;50.30
15455;DHT22;21057;51.024;7.540;2022-09-03T13:41:34;32.00;50.80
15455;DHT22;21057;51.024;7.540;2022-09-03T13:44:07;32.10;50.30
15455;DHT22;21057;51.024;7.540;2022-09-03T13:46:42;32.30;50.20
15455;DHT22;21057;51.024;7.540;2022-09-03T13:49:22;32.60;50.00
15455;DHT22;21057;51.024;7.540;2022-09-03T13:52:15;32.80;49.80
15455;DHT22;21057;51.024;7.540;2022-09-03T13:54:51;32.60;50.30
15455;DHT22;21057;51.024;7.540;2022-09-03T13:57:27;32.20;50.60
15455;DHT22;21057;51.024;7.540;2022-09-03T13:59:59;32.20;51.60
15455;DHT22;21057;51.024;7.540;2022-09-03T14:02:43;32.40;51.00
15455;DHT22;21057;51.024;7.540;2022-09-03T14:05:15;32.30;51.00
15455;DHT22;21057;51.024;7.540;2022-09-03T14:07:50;31.90;51.00
15455;DHT22;21057;51.024;7.540;2022-09-03T14:10:23;32.50;51.10
15455;DHT22;21057;51.024;7.540;2022-09-03T14:13:05;32.00;51.50
15455;DHT22;21057;51.024;7.540;2022-09-03T14:15:40;31.30;51.30
15455;DHT22;21057;51.024;7.540;2022-09-03T14:18:12;31.00;53.30
15455;DHT22;21057;51.024;7.540;2022-09-03T14:20:44;31.00;53.20
15455;DHT22;21057;51.024;7.540;2022-09-03T14:23:25;30.70;53.10
15455;DHT22;21057;51.024;7.540;2022-09-03T14:25:55;30.00;54.90
15455;DHT22;21057;51.024;7.540;2022-09-03T14:28:30;30.00;55.00
15455;DHT22;21057;51.024;7.540;2022-09-03T14:31:06;30.50;54.60
15455;DHT22;21057;51.024;7.540;2022-09-03T14:33:42;30.70;54.10
15455;DHT22;21057;51.024;7.540;2022-09-03T14:36:20;30.90;53.80
15455;DHT22;21057;51.024;7.540;2022-09-03T14:38:58;31.10;54.00
15455;DHT22;21057;51.024;7.540;2022-09-03T14:41:47;30.90;53.30
15455;DHT22;21057;51.024;7.540;2022-09-03T14:44:38;30.40;54.50
15455;DHT22;21057;51.024;7.540;2022-09-03T14:47:16;29.70;55.00
15455;DHT22;21057;51.024;7.540;2022-09-03T14:49:56;29.20;56.70
15455;DHT22;21057;51.024;7.540;2022-09-03T14:55:48;29.20;55.90
15455;DHT22;21057;51.024;7.540;2022-09-03T14:58:24;28.50;56.60
15455;DHT22;21057;51.024;7.540;2022-09-03T15:01:00;28.60;58.50
15455;DHT22;21057;51.024;7.540;2022-09-03T15:06:31;28.20;59.30
15455;DHT22;21057;51.024;7.540;2022-09-03T15:09:17;28.10;58.90
15455;DHT22;21057;51.024;7.540;2022-09-03T15:11:51;28.00;59.30
15455;DHT22;21057;51.024;7.540;2022-09-03T15:14:25;28.00;59.60
15455;DHT22;21057;51.024;7.540;2022-09-03T15:16:58;28.00;58.20
15455;DHT22;21057;51.024;7.540;2022-09-03T15:19:54;27.70;58.50
15455;DHT22;21057;51.024;7.540;2022-09-03T15:22:43;27.70;60.80
15455;DHT22;21057;51.024;7.540;2022-09-03T15:25:20;27.80;59.60
15455;DHT22;21057;51.024;7.540;2022-09-03T15:28:03;27.90;59.00
15455;DHT22;21057;51.024;7.540;2022-09-03T15:30:38;27.80;58.60
15455;DHT22;21057;51.024;7.540;2022-09-03T15:33:18;27.40;59.70
15455;DHT22;21057;51.024;7.540;2022-09-03T15:35:59;27.50;59.80
15455;DHT22;21057;51.024;7.540;2022-09-03T15:38:39;27.70;59.70
15455;DHT22;21057;51.024;7.540;2022-09-03T15:41:16;27.20;59.90
15455;DHT22;21057;51.024;7.540;2022-09-03T15:43:48;27.40;59.70
15455;DHT22;21057;51.024;7.540;2022-09-03T15:46:36;28.20;59.70
15455;DHT22;21057;51.024;7.540;2022-09-03T15:49:09;28.70;58.50
15455;DHT22;21057;51.024;7.540;2022-09-03T15:51:50;29.00;57.40
15455;DHT22;21057;51.024;7.540;2022-09-03T15:54:31;29.20;56.50
15455;DHT22;21057;51.024;7.540;2022-09-03T15:57:04;29.00;56.90
15455;DHT22;21057;51.024;7.540;2022-09-03T15:59:40;28.20;58.50
15455;DHT22;21057;51.024;7.540;2022-09-03T16:02:11;28.20;59.00
15455;DHT22;21057;51.024;7.540;2022-09-03T16:04:55;27.90;58.90
15455;DHT22;21057;51.024;7.540;2022-09-03T16:07:44;27.70;60.90
15455;DHT22;21057;51.024;7.540;2022-09-03T16:10:15;27.60;60.50
15455;DHT22;21057;51.024;7.540;2022-09-03T16:12:54;27.20;61.20
15455;DHT22;21057;51.024;7.540;2022-09-03T16:15:27;27.20;61.70
15455;DHT22;21057;51.024;7.540;2022-09-03T16:18:00;27.10;61.60
15455;DHT22;21057;51.024;7.540;2022-09-03T16:20:35;27.30;60.90
15455;DHT22;21057;51.024;7.540;2022-09-03T16:23:09;27.30;61.40
15455;DHT22;21057;51.024;7.540;2022-09-03T16:25:47;27.50;61.10